Marthasville, Missouri
Current Conditions -  °F | °C
As of 12:35 AM on Wednesday 28 Jan 2015 (Local Time) from KFYG Reporting Station
Clear Clear  
Wind Chill: 26°   Ceiling: Unl
Heat Index: 32°   Visibility: 8mi
Dew Point: 27°   Wind: 6mph
Humidity: 80%   Direction: 130°SE
Pressure: 30.23"   Gusts: NA
Location:  38.63°N, 91.06°W
Report Text: KFYG 280635Z AUTO 13005KT 8SM CLR 00/M03 A3023 RMK AO2
Loading
Personal Weather Stations






























Interactive Weather Map New forecast layout! Learn more

10-Day Weather Forecast

Advertisements
Track Severe Weather on mobile